Neely, Mississippi
Current Conditions -  °F | °C
As of 8:53 PM on Sunday 23 Nov 2014 (Local Time) from KHBG Reporting Station
Few Clouds Few Clouds  
Wind Chill: 64°   Ceiling: Unl
Heat Index: 64°   Visibility: 10mi
Dew Point: 61°   Wind: 7mph
Humidity: 90%   Direction: 200°SSW
Pressure: 29.71"   Gusts: NA
Location:  31.17°N, 88.75°W
Report Text: KHBG 240253Z AUTO 20006KT 10SM FEW027 18/16 A2971 RMK AO2 SLP059 T01780161 53024
Loading
Personal Weather Stations






























Interactive Weather Map New forecast layout! Learn more

10-Day Weather Forecast

Advertisements
Track Severe Weather on mobile